Time;durP1;ratioP1;P1;durP2;ratioP2;P2;SDS_P1;SDS_P2;PMS_P1;PMS_P2;Temp;Humidity;BMP_temperature;BMP_pressure;BME280_temperature;BME280_humidity;BME280_pressure;Samples;Min_cycle;Max_cycle;Signal;HPM_P1;HPM_P2
2022/11/24 00:01:17;;;;;;;31.83;7.17;;;8.20;99.90;;;;;;5061749;28;20203;-70
2022/11/24 00:03:55;;;;;;;25.57;8.40;;;8.20;99.90;;;;;;5058074;28;20213;-70
2022/11/24 00:06:23;;;;;;;29.60;6.47;;;8.20;99.90;;;;;;5050164;28;20278;-70
2022/11/24 00:08:50;;;;;;;22.63;6.10;;;8.20;99.90;;;;;;5049308;28;20685;-70
2022/11/24 00:11:20;;;;;;;27.07;7.13;;;8.20;99.90;;;;;;5064259;28;20567;-69
2022/11/24 00:13:48;;;;;;;25.20;5.93;;;8.20;99.90;;;;;;5060736;28;20206;-70
2022/11/24 00:16:23;;;;;;;27.33;6.27;;;8.20;99.90;;;;;;5060122;28;20230;-70
2022/11/24 00:18:52;;;;;;;24.57;5.83;;;8.10;99.90;;;;;;5042573;28;20215;-70
2022/11/24 00:21:20;;;;;;;24.93;5.43;;;8.10;99.90;;;;;;5075225;28;20632;-71
2022/11/24 00:23:48;;;;;;;25.87;6.37;;;8.20;99.90;;;;;;5063892;28;20216;-70
2022/11/24 00:26:21;;;;;;;20.13;7.00;;;8.20;99.90;;;;;;5060550;28;20194;-70
2022/11/24 00:28:49;;;;;;;30.50;7.10;;;8.10;99.90;;;;;;5062187;28;20207;-71
2022/11/24 00:31:24;;;;;;;25.27;5.50;;;8.10;99.90;;;;;;5060535;28;20269;-69
2022/11/24 00:33:57;;;;;;;25.97;6.30;;;8.10;99.90;;;;;;5061144;28;20607;-70
2022/11/24 00:36:26;;;;;;;30.73;6.07;;;8.10;99.90;;;;;;5058351;28;20291;-72
2022/11/24 00:38:58;;;;;;;26.83;8.07;;;8.10;99.90;;;;;;5058897;28;20280;-70
2022/11/24 00:41:27;;;;;;;27.10;6.90;;;8.10;99.90;;;;;;5065031;28;20211;-71
2022/11/24 00:43:54;;;;;;;32.90;5.90;;;8.10;99.90;;;;;;5059606;28;20241;-69
2022/11/24 00:46:22;;;;;;;23.63;5.30;;;8.10;99.90;;;;;;5048929;28;20226;-70
2022/11/24 00:48:50;;;;;;;24.70;5.07;;;8.20;99.90;;;;;;5059720;28;20578;-69
2022/11/24 00:51:21;;;;;;;20.00;5.40;;;8.20;99.90;;;;;;5060554;28;20222;-70
2022/11/24 00:53:48;;;;;;;26.73;5.37;;;8.20;99.90;;;;;;5044849;28;20206;-70
2022/11/24 00:56:18;;;;;;;24.73;5.43;;;8.20;99.90;;;;;;5063400;28;20625;-69
2022/11/24 00:58:45;;;;;;;28.40;5.90;;;8.30;99.90;;;;;;5060749;28;20233;-69
2022/11/24 01:01:23;;;;;;;30.80;5.90;;;8.30;99.90;;;;;;5060940;28;20250;-70
2022/11/24 01:03:51;;;;;;;27.37;5.27;;;8.30;99.90;;;;;;5055998;28;20204;-69
2022/11/24 01:06:20;;;;;;;20.17;4.73;;;8.30;99.90;;;;;;5061771;28;20218;-70
2022/11/24 01:08:48;;;;;;;25.13;4.97;;;8.30;99.90;;;;;;5059740;28;20205;-69
2022/11/24 01:11:17;;;;;;;28.87;5.37;;;8.30;99.90;;;;;;5059913;28;20210;-71
2022/11/24 01:13:47;;;;;;;21.70;5.40;;;8.30;99.90;;;;;;5056789;28;20200;-71
2022/11/24 01:16:30;;;;;;;20.93;5.17;;;8.20;99.90;;;;;;5060390;28;20692;-69
2022/11/24 01:18:57;;;;;;;23.07;4.80;;;8.30;99.90;;;;;;5059018;28;20250;-69
2022/11/24 01:21:24;;;;;;;27.43;6.20;;;8.20;99.90;;;;;;5061385;28;20294;-70
2022/11/24 01:23:51;;;;;;;31.33;5.73;;;8.20;99.90;;;;;;5054335;28;20259;-69
2022/11/24 01:26:20;;;;;;;28.60;5.73;;;8.20;99.90;;;;;;5036863;28;20237;-69
2022/11/24 01:28:55;;;;;;;30.33;5.03;;;8.20;99.90;;;;;;5060759;28;20215;-70
2022/11/24 01:31:22;;;;;;;26.53;6.17;;;8.20;99.90;;;;;;5045515;28;20208;-69
2022/11/24 01:33:49;;;;;;;22.33;4.87;;;8.20;99.90;;;;;;5059707;28;20295;-70
2022/11/24 01:36:16;;;;;;;17.47;4.30;;;8.20;99.90;;;;;;5060841;28;20244;-70
2022/11/24 01:38:43;;;;;;;26.33;4.63;;;8.20;99.90;;;;;;5059459;28;20206;-70
2022/11/24 01:41:14;;;;;;;16.47;5.03;;;8.20;99.90;;;;;;5060388;28;20215;-70
2022/11/24 01:43:42;;;;;;;20.93;4.43;;;8.20;99.90;;;;;;5060671;28;20596;-70
2022/11/24 01:46:37;;;;;;;21.77;5.17;;;8.20;99.90;;;;;;5062245;28;20219;-70
2022/11/24 01:49:07;;;;;;;19.57;5.30;;;8.20;99.90;;;;;;5060576;28;20203;-69
2022/11/24 01:51:40;;;;;;;20.37;4.20;;;8.20;99.90;;;;;;5056834;28;20225;-70
2022/11/24 01:54:13;;;;;;;19.53;4.10;;;8.10;99.90;;;;;;5046260;28;20254;-70
2022/11/24 01:56:44;;;;;;;19.47;4.63;;;8.20;99.90;;;;;;5059064;28;20233;-70
2022/11/24 01:59:13;;;;;;;22.37;4.17;;;8.10;99.90;;;;;;5042686;28;20612;-69
2022/11/24 02:01:40;;;;;;;24.10;5.27;;;8.10;99.90;;;;;;5059566;28;20213;-70
2022/11/24 02:04:12;;;;;;;15.87;3.77;;;8.10;99.90;;;;;;5064118;28;20634;-70
2022/11/24 02:06:41;;;;;;;23.07;4.73;;;8.00;99.90;;;;;;5062823;28;20283;-71
2022/11/24 02:09:22;;;;;;;16.10;4.20;;;8.00;99.90;;;;;;5065350;28;20205;-71
2022/11/24 02:11:52;;;;;;;23.57;4.53;;;8.00;99.90;;;;;;5064007;28;20729;-69
2022/11/24 02:14:22;;;;;;;20.20;4.30;;;8.00;99.90;;;;;;5048709;28;20201;-70
2022/11/24 02:16:51;;;;;;;19.57;4.00;;;8.00;99.90;;;;;;5068707;28;20310;-70
2022/11/24 02:19:27;;;;;;;19.17;4.30;;;8.00;99.90;;;;;;5066575;28;20494;-70
2022/11/24 02:21:54;;;;;;;20.07;4.00;;;8.00;99.90;;;;;;5063655;28;20270;-71
2022/11/24 02:24:35;;;;;;;19.57;4.20;;;7.90;99.90;;;;;;5048726;28;20280;-70
2022/11/24 02:27:03;;;;;;;23.43;4.23;;;7.90;99.90;;;;;;5061901;28;20205;-70
2022/11/24 02:29:30;;;;;;;18.13;4.30;;;8.00;99.90;;;;;;5051434;28;20208;-69
2022/11/24 02:32:03;;;;;;;20.40;3.80;;;8.00;99.90;;;;;;5062781;28;20202;-69
2022/11/24 02:34:30;;;;;;;26.33;4.30;;;8.00;99.90;;;;;;5066270;28;20205;-70
2022/11/24 02:36:58;;;;;;;16.93;3.70;;;8.00;99.90;;;;;;5048279;28;20230;-70
2022/11/24 02:39:25;;;;;;;19.37;3.73;;;8.00;99.90;;;;;;5063525;28;20221;-70
2022/11/24 02:41:56;;;;;;;22.80;5.00;;;8.10;99.90;;;;;;5063617;28;20215;-71
2022/11/24 02:44:29;;;;;;;18.20;4.23;;;8.10;99.90;;;;;;5049457;28;20189;-70
2022/11/24 02:47:08;;;;;;;23.83;4.40;;;8.10;99.90;;;;;;5061550;28;20301;-71
2022/11/24 02:49:35;;;;;;;25.90;4.80;;;8.10;99.90;;;;;;5062639;28;20572;-69
2022/11/24 02:52:03;;;;;;;18.63;4.83;;;8.20;99.90;;;;;;5066671;28;20268;-69
2022/11/24 02:54:30;;;;;;;20.70;3.87;;;8.20;99.90;;;;;;5063048;28;20667;-70
2022/11/24 02:56:59;;;;;;;17.73;3.80;;;8.10;99.90;;;;;;5067995;28;20239;-69
2022/11/24 02:59:26;;;;;;;18.60;4.27;;;8.20;99.90;;;;;;5063447;28;20217;-70
2022/11/24 03:01:53;;;;;;;19.70;5.20;;;8.20;99.90;;;;;;5060891;28;20245;-69
2022/11/24 03:04:20;;;;;;;16.97;3.20;;;8.20;99.90;;;;;;5064654;28;20208;-69
2022/11/24 03:06:47;;;;;;;19.90;4.10;;;8.20;99.90;;;;;;5049776;28;20288;-69
2022/11/24 03:09:14;;;;;;;22.90;3.77;;;8.20;99.90;;;;;;5062265;28;20262;-68
2022/11/24 03:11:41;;;;;;;18.57;3.53;;;8.20;99.90;;;;;;5063084;28;20223;-70
2022/11/24 03:14:08;;;;;;;18.30;3.67;;;8.30;99.90;;;;;;5060885;28;20243;-70
2022/11/24 03:16:35;;;;;;;16.87;3.27;;;8.30;99.90;;;;;;5063862;28;20213;-69
2022/11/24 03:19:02;;;;;;;17.97;3.60;;;8.30;99.90;;;;;;5064914;28;20261;-70
2022/11/24 03:21:29;;;;;;;15.70;3.13;;;8.30;99.90;;;;;;5061636;28;20544;-69
2022/11/24 03:23:56;;;;;;;15.97;3.50;;;8.30;99.90;;;;;;5065888;28;20198;-70
2022/11/24 03:26:24;;;;;;;13.80;3.07;;;8.30;99.90;;;;;;5049880;28;20217;-69
2022/11/24 03:28:56;;;;;;;18.23;4.20;;;8.30;99.90;;;;;;5062745;28;20268;-70
2022/11/24 03:31:23;;;;;;;16.13;3.57;;;8.30;99.90;;;;;;5048807;28;20232;-70
2022/11/24 03:33:50;;;;;;;19.67;3.90;;;8.30;99.90;;;;;;5063677;28;20709;-69
2022/11/24 03:36:17;;;;;;;22.43;4.73;;;8.30;99.90;;;;;;5063311;28;20267;-70
2022/11/24 03:38:44;;;;;;;15.13;4.33;;;8.30;99.90;;;;;;5068430;28;20247;-69
2022/11/24 03:41:11;;;;;;;14.63;3.63;;;8.20;99.90;;;;;;5063539;28;20210;-70
2022/11/24 03:43:38;;;;;;;16.03;4.30;;;8.20;99.90;;;;;;5065808;28;20229;-70
2022/11/24 03:46:11;;;;;;;15.73;3.90;;;8.20;99.90;;;;;;5065178;28;20279;-70
2022/11/24 03:48:38;;;;;;;18.60;3.77;;;8.20;99.90;;;;;;5066361;28;20209;-69
2022/11/24 03:51:05;;;;;;;14.10;3.50;;;8.20;99.90;;;;;;5061979;28;20259;-70
2022/11/24 03:53:32;;;;;;;16.27;4.07;;;8.20;99.90;;;;;;5065920;28;20865;-69
2022/11/24 03:56:00;;;;;;;20.70;4.27;;;8.20;99.90;;;;;;5060986;28;20604;-69
2022/11/24 03:58:28;;;;;;;19.77;3.67;;;8.20;99.90;;;;;;5060660;28;20237;-69
2022/11/24 04:00:56;;;;;;;23.37;3.57;;;8.20;99.90;;;;;;5064650;28;20191;-69
2022/11/24 04:03:23;;;;;;;22.33;4.07;;;8.30;99.90;;;;;;5050145;28;20199;-70
2022/11/24 04:05:50;;;;;;;21.10;4.17;;;8.30;99.90;;;;;;5060628;28;20207;-69
2022/11/24 04:08:20;;;;;;;24.10;3.70;;;8.30;99.90;;;;;;5062527;28;20321;-69
2022/11/24 04:10:52;;;;;;;18.60;3.50;;;8.40;99.90;;;;;;5060372;28;20209;-69
2022/11/24 04:13:22;;;;;;;18.70;3.77;;;8.50;99.90;;;;;;5065468;28;20211;-69
2022/11/24 04:15:49;;;;;;;15.37;3.90;;;8.50;99.90;;;;;;5059037;28;20683;-70
2022/11/24 04:18:16;;;;;;;19.63;3.37;;;8.50;99.90;;;;;;5062058;28;20280;-70
2022/11/24 04:20:44;;;;;;;18.23;3.93;;;8.50;99.90;;;;;;5046623;28;20207;-70
2022/11/24 04:23:11;;;;;;;19.87;4.37;;;8.50;99.90;;;;;;5062807;28;20580;-70
2022/11/24 04:25:38;;;;;;;14.83;3.30;;;8.40;99.90;;;;;;5063502;28;20632;-70
2022/11/24 04:28:04;;;;;;;20.23;3.87;;;8.40;99.90;;;;;;5060338;28;20219;-69
2022/11/24 04:30:31;;;;;;;19.87;4.23;;;8.40;99.90;;;;;;5048641;28;20218;-69
2022/11/24 04:32:58;;;;;;;22.07;4.17;;;8.40;99.90;;;;;;5056653;28;20730;-70
2022/11/24 04:35:25;;;;;;;18.50;3.40;;;8.40;99.90;;;;;;5063119;28;20237;-71
2022/11/24 04:37:52;;;;;;;13.77;3.60;;;8.40;99.90;;;;;;5046776;28;20232;-69
2022/11/24 04:40:19;;;;;;;17.67;3.63;;;8.40;99.90;;;;;;5062799;28;20247;-69
2022/11/24 04:42:56;;;;;;;13.30;3.83;;;8.40;99.90;;;;;;5048311;28;20215;-70
2022/11/24 04:45:23;;;;;;;15.07;3.17;;;8.40;99.90;;;;;;5061078;28;20213;-70
2022/11/24 04:47:50;;;;;;;23.50;4.37;;;8.40;99.90;;;;;;5059761;28;20342;-70
2022/11/24 04:50:17;;;;;;;15.67;4.37;;;8.40;99.90;;;;;;5066332;28;20208;-69
2022/11/24 04:52:44;;;;;;;18.67;4.30;;;8.40;99.90;;;;;;5062888;28;20225;-69
2022/11/24 04:55:11;;;;;;;24.47;4.17;;;8.40;99.90;;;;;;5058043;28;20264;-70
2022/11/24 04:57:38;;;;;;;19.63;3.60;;;8.40;99.90;;;;;;5059997;28;20758;-71
2022/11/24 05:00:06;;;;;;;21.63;3.90;;;8.40;99.90;;;;;;5063071;28;20210;-69
2022/11/24 05:02:33;;;;;;;20.07;4.77;;;8.40;99.90;;;;;;5059120;28;20235;-70
2022/11/24 05:05:00;;;;;;;18.10;3.87;;;8.40;99.90;;;;;;5063078;28;20251;-69
2022/11/24 05:07:27;;;;;;;22.30;3.90;;;8.30;99.90;;;;;;5058018;28;20207;-69
2022/11/24 05:12:39;;;;;;;16.23;3.93;;;8.30;99.90;;;;;;5059030;28;20224;-70
2022/11/24 05:15:06;;;;;;;24.53;4.23;;;8.20;99.90;;;;;;5030692;28;20631;-70
2022/11/24 05:17:35;;;;;;;19.23;4.60;;;8.20;99.90;;;;;;5050570;28;20223;-69
2022/11/24 05:20:04;;;;;;;19.00;3.87;;;8.20;99.90;;;;;;5060520;28;20301;-69
2022/11/24 05:22:31;;;;;;;24.00;4.60;;;8.20;99.90;;;;;;5059237;28;20247;-70
2022/11/24 05:24:58;;;;;;;21.23;4.80;;;8.20;99.90;;;;;;5061468;28;20292;-69
2022/11/24 05:27:24;;;;;;;26.67;4.33;;;8.20;99.90;;;;;;5056746;28;20229;-70
2022/11/24 05:29:51;;;;;;;25.67;4.40;;;8.20;99.90;;;;;;5059107;28;20289;-69
2022/11/24 05:32:20;;;;;;;22.53;5.70;;;8.20;99.90;;;;;;5059384;28;20210;-68
2022/11/24 05:34:47;;;;;;;21.23;3.83;;;8.20;99.90;;;;;;5061455;28;21083;-70
2022/11/24 05:37:13;;;;;;;24.83;5.17;;;8.30;99.90;;;;;;5062600;28;20231;-69
2022/11/24 05:39:40;;;;;;;18.60;4.37;;;8.30;99.90;;;;;;5059230;28;20307;-68
2022/11/24 05:44:54;;;;;;;29.43;4.77;;;8.50;99.90;;;;;;5061985;28;20210;-68
2022/11/24 05:47:21;;;;;;;19.57;4.67;;;8.50;99.90;;;;;;5064928;28;20718;-71
2022/11/24 05:49:48;;;;;;;14.77;4.03;;;8.50;99.90;;;;;;5054932;28;20330;-69
2022/11/24 05:52:15;;;;;;;17.37;4.13;;;8.50;99.90;;;;;;5041299;28;20322;-69
2022/11/24 05:54:42;;;;;;;14.20;4.33;;;8.50;99.90;;;;;;5061969;28;20306;-69
2022/11/24 05:57:09;;;;;;;19.47;4.20;;;8.60;99.90;;;;;;5064882;28;20239;-70
2022/11/24 05:59:36;;;;;;;24.87;5.10;;;8.60;99.90;;;;;;5060821;28;20273;-69
2022/11/24 06:02:02;;;;;;;21.63;6.43;;;8.60;99.90;;;;;;5064880;28;20219;-70
2022/11/24 06:04:30;;;;;;;18.63;4.50;;;8.70;99.90;;;;;;5046297;28;20203;-69
2022/11/24 06:06:58;;;;;;;28.03;5.53;;;8.70;99.90;;;;;;5064083;28;20200;-69
2022/11/24 06:09:24;;;;;;;15.67;4.17;;;8.70;99.90;;;;;;5065498;28;20211;-69
2022/11/24 06:11:51;;;;;;;15.50;4.23;;;8.80;99.90;;;;;;5063223;28;20302;-69
2022/11/24 06:14:18;;;;;;;13.03;3.73;;;8.80;99.90;;;;;;5061514;28;20297;-70
2022/11/24 06:16:44;;;;;;;17.13;3.97;;;8.80;99.90;;;;;;5062210;28;20232;-69
2022/11/24 06:19:11;;;;;;;16.80;4.57;;;8.80;99.90;;;;;;5067169;28;20214;-69
2022/11/24 06:21:38;;;;;;;18.00;5.60;;;8.80;99.90;;;;;;5054857;28;20295;-70
2022/11/24 06:24:05;;;;;;;17.43;5.40;;;8.80;99.90;;;;;;5066243;28;20325;-69
2022/11/24 06:26:32;;;;;;;20.80;4.33;;;8.80;99.90;;;;;;5056315;28;20211;-68
2022/11/24 06:28:59;;;;;;;9.73;4.47;;;8.80;99.90;;;;;;5070317;28;20206;-68
2022/11/24 06:31:26;;;;;;;14.70;4.80;;;8.80;99.90;;;;;;5064821;28;20204;-69
2022/11/24 06:33:53;;;;;;;16.37;4.80;;;8.70;99.90;;;;;;5063014;28;20261;-69
2022/11/24 06:36:19;;;;;;;8.33;3.80;;;8.80;99.90;;;;;;5065593;28;20237;-69
2022/11/24 06:38:46;;;;;;;9.40;3.60;;;8.70;99.90;;;;;;5064840;28;20228;-69
2022/11/24 06:41:15;;;;;;;11.20;3.77;;;8.70;99.90;;;;;;5064287;28;20209;-69
2022/11/24 06:43:43;;;;;;;10.73;3.40;;;8.70;99.90;;;;;;5070292;28;20745;-68
2022/11/24 06:46:11;;;;;;;9.27;4.00;;;8.70;99.90;;;;;;5066006;28;20323;-69
2022/11/24 06:48:38;;;;;;;9.73;3.30;;;8.70;99.90;;;;;;5061652;28;20208;-69
2022/11/24 06:51:07;;;;;;;8.57;3.27;;;8.70;99.90;;;;;;5054634;28;20199;-69
2022/11/24 06:53:36;;;;;;;8.90;3.33;;;8.70;99.90;;;;;;5066000;28;20205;-68
2022/11/24 06:56:09;;;;;;;8.03;3.30;;;8.70;99.90;;;;;;5065774;28;20213;-69
2022/11/24 06:58:44;;;;;;;8.00;3.17;;;8.70;99.90;;;;;;5049631;28;20273;-69
2022/11/24 07:01:20;;;;;;;9.77;2.80;;;8.70;99.90;;;;;;5062051;28;20620;-67
2022/11/24 07:03:48;;;;;;;7.20;2.97;;;8.70;99.90;;;;;;5065045;28;20261;-68
2022/11/24 07:06:16;;;;;;;5.67;2.70;;;8.60;99.90;;;;;;5061237;28;20314;-68
2022/11/24 07:08:44;;;;;;;10.83;4.37;;;8.60;99.90;;;;;;5063726;28;20295;-70
2022/11/24 07:11:16;;;;;;;5.87;2.97;;;8.60;99.90;;;;;;5063499;28;20299;-69
2022/11/24 07:13:44;;;;;;;7.70;3.50;;;8.60;99.90;;;;;;5062595;28;20215;-68
2022/11/24 07:16:20;;;;;;;5.00;2.90;;;8.60;99.90;;;;;;5068042;28;20210;-69
2022/11/24 07:18:50;;;;;;;7.43;2.80;;;8.50;99.90;;;;;;5058461;28;20757;-70
2022/11/24 07:21:17;;;;;;;9.13;3.40;;;8.50;99.90;;;;;;5066826;28;20203;-70
2022/11/24 07:23:47;;;;;;;6.53;3.13;;;8.50;99.90;;;;;;5067465;28;20655;-70
2022/11/24 07:26:15;;;;;;;6.70;3.47;;;8.60;99.90;;;;;;5066075;28;20620;-69
2022/11/24 07:28:42;;;;;;;7.20;3.63;;;8.50;99.90;;;;;;5064416;28;20926;-70
2022/11/24 07:31:14;;;;;;;8.93;3.50;;;8.60;99.90;;;;;;5067351;28;20196;-70
2022/11/24 07:33:41;;;;;;;8.37;4.03;;;8.60;99.90;;;;;;5064713;28;20223;-69
2022/11/24 07:36:08;;;;;;;8.80;4.23;;;8.60;99.90;;;;;;5066947;28;20230;-70
2022/11/24 07:38:35;;;;;;;10.23;4.30;;;8.50;99.90;;;;;;5066230;28;20633;-70
2022/11/24 07:41:08;;;;;;;11.20;5.07;;;8.50;99.90;;;;;;5064227;28;20309;-69
2022/11/24 07:43:36;;;;;;;9.63;4.70;;;8.50;99.90;;;;;;5069700;28;20887;-69
2022/11/24 07:46:05;;;;;;;15.60;5.37;;;8.50;99.90;;;;;;5067360;28;20200;-69
2022/11/24 07:48:33;;;;;;;9.53;5.20;;;8.40;99.90;;;;;;5071266;28;20205;-70
2022/11/24 07:51:01;;;;;;;13.40;6.00;;;8.40;99.90;;;;;;5065464;28;20311;-70
2022/11/24 07:53:28;;;;;;;12.90;6.00;;;8.50;99.90;;;;;;5067717;28;20746;-69
2022/11/24 07:55:58;;;;;;;12.63;6.60;;;8.50;99.90;;;;;;5064449;28;20629;-69
2022/11/24 07:58:33;;;;;;;16.57;6.27;;;8.50;99.90;;;;;;5067824;28;20664;-70
2022/11/24 08:01:09;;;;;;;12.23;7.97;;;8.60;99.90;;;;;;5065070;28;20325;-68
2022/11/24 08:03:36;;;;;;;14.23;7.83;;;8.60;99.90;;;;;;5045160;28;20212;-69
2022/11/24 08:06:03;;;;;;;17.57;8.20;;;8.60;99.90;;;;;;5066312;28;20525;-69
2022/11/24 08:08:50;;;;;;;19.83;8.83;;;8.60;99.90;;;;;;5066539;28;20244;-69
2022/11/24 08:11:17;;;;;;;16.27;9.30;;;8.60;99.90;;;;;;5063201;28;20733;-70
2022/11/24 08:13:44;;;;;;;18.87;9.90;;;8.60;99.90;;;;;;5064603;28;20215;-69
2022/11/24 08:16:13;;;;;;;21.70;9.53;;;8.60;99.90;;;;;;5061059;28;20294;-70
2022/11/24 08:18:41;;;;;;;14.30;9.13;;;8.60;99.90;;;;;;5070340;28;20265;-70
2022/11/24 08:21:12;;;;;;;16.53;10.23;;;8.70;99.90;;;;;;5046706;28;20212;-68
2022/11/24 08:23:40;;;;;;;17.77;10.17;;;8.70;99.90;;;;;;5059842;28;20202;-69
2022/11/24 08:26:14;;;;;;;17.77;10.63;;;8.70;99.90;;;;;;5061560;28;20282;-71
2022/11/24 08:28:41;;;;;;;20.63;10.30;;;8.70;99.90;;;;;;5066289;28;20212;-69
2022/11/24 08:31:14;;;;;;;19.27;11.90;;;8.70;99.90;;;;;;5066652;28;20238;-70
2022/11/24 08:33:42;;;;;;;20.23;11.33;;;8.70;99.90;;;;;;5064408;28;20223;-69
2022/11/24 08:36:12;;;;;;;18.47;10.60;;;8.60;99.90;;;;;;5045782;28;20225;-70
2022/11/24 08:38:39;;;;;;;22.77;11.90;;;8.60;99.90;;;;;;5066732;28;20258;-69
2022/11/24 08:41:08;;;;;;;20.57;11.67;;;8.60;99.90;;;;;;5068648;28;20200;-69
2022/11/24 08:43:36;;;;;;;22.77;11.83;;;8.60;99.90;;;;;;5063708;28;20312;-69
2022/11/24 08:46:11;;;;;;;23.97;13.53;;;8.60;99.90;;;;;;5071291;28;20560;-71
2022/11/24 08:48:39;;;;;;;20.83;11.40;;;8.60;99.90;;;;;;5066040;28;20618;-69
2022/11/24 08:51:09;;;;;;;30.27;13.03;;;8.60;99.90;;;;;;5051435;28;20654;-68
2022/11/24 08:53:36;;;;;;;24.40;11.97;;;8.50;99.90;;;;;;5063175;28;20200;-70
2022/11/24 08:56:04;;;;;;;23.00;12.57;;;8.60;99.90;;;;;;5063917;28;20222;-70
2022/11/24 08:58:31;;;;;;;23.93;12.13;;;8.60;99.90;;;;;;5065867;28;20235;-69
2022/11/24 09:01:13;;;;;;;25.93;12.57;;;8.60;99.90;;;;;;5069533;28;20557;-69
2022/11/24 09:03:41;;;;;;;28.40;13.00;;;8.60;99.90;;;;;;5067149;28;20211;-70
2022/11/24 09:06:17;;;;;;;24.90;11.30;;;8.60;99.90;;;;;;5063698;28;20204;-70
2022/11/24 09:08:44;;;;;;;28.27;11.90;;;8.60;99.90;;;;;;5062708;28;20302;-70
2022/11/24 09:11:13;;;;;;;25.57;11.77;;;8.60;99.90;;;;;;5062508;28;20209;-70
2022/11/24 09:13:39;;;;;;;22.87;11.20;;;8.60;99.90;;;;;;5063739;28;20208;-70
2022/11/24 09:16:10;;;;;;;21.77;11.70;;;8.60;99.90;;;;;;5065526;28;20287;-69
2022/11/24 09:18:37;;;;;;;21.03;11.97;;;8.60;99.90;;;;;;5060106;28;20321;-69
2022/11/24 09:21:08;;;;;;;22.10;10.70;;;8.60;99.90;;;;;;5061297;28;20856;-70
2022/11/24 09:23:36;;;;;;;22.33;11.47;;;8.70;99.90;;;;;;5063099;28;20335;-69
2022/11/24 09:26:12;;;;;;;21.73;10.97;;;8.70;99.90;;;;;;5081030;28;20262;-70
2022/11/24 09:28:40;;;;;;;23.23;10.80;;;8.70;99.90;;;;;;5051286;28;20269;-70
2022/11/24 09:31:09;;;;;;;21.77;11.77;;;8.70;99.90;;;;;;5061898;28;20642;-70
2022/11/24 09:33:37;;;;;;;22.83;9.73;;;8.80;99.90;;;;;;5061703;28;20211;-69
2022/11/24 09:36:04;;;;;;;18.10;9.97;;;8.80;99.90;;;;;;5051807;28;20317;-69
2022/11/24 09:38:31;;;;;;;23.07;10.63;;;8.90;99.90;;;;;;5056408;28;20700;-69
2022/11/24 09:41:14;;;;;;;18.10;9.93;;;8.90;99.90;;;;;;5049257;28;20518;-69
2022/11/24 09:44:02;;;;;;;21.77;9.33;;;9.00;99.90;;;;;;5072917;28;20206;-70
2022/11/24 09:46:39;;;;;;;18.03;9.10;;;9.00;99.90;;;;;;5062738;28;20207;-70
2022/11/24 09:49:15;;;;;;;21.23;9.73;;;9.10;99.90;;;;;;5080356;28;20208;-70
2022/11/24 09:51:45;;;;;;;13.93;9.43;;;9.10;99.90;;;;;;5069932;28;20196;-70
2022/11/24 09:54:20;;;;;;;17.03;9.70;;;9.10;99.90;;;;;;5075118;28;20219;-70
2022/11/24 09:56:50;;;;;;;16.83;9.40;;;9.20;99.90;;;;;;5056020;28;20681;-69
2022/11/24 09:59:22;;;;;;;22.07;10.50;;;9.20;99.90;;;;;;5068973;28;20692;-68
2022/11/24 10:01:50;;;;;;;25.27;10.43;;;9.30;99.90;;;;;;5067831;28;20261;-69
2022/11/24 10:04:24;;;;;;;16.60;8.93;;;9.20;99.90;;;;;;5064932;28;20208;-70
2022/11/24 10:07:03;;;;;;;25.47;10.40;;;9.20;99.90;;;;;;5074249;28;20204;-69
2022/11/24 10:09:38;;;;;;;22.80;9.37;;;9.30;99.90;;;;;;5064888;28;20633;-68
2022/11/24 10:12:48;;;;;;;20.17;10.00;;;9.40;99.90;;;;;;5060442;28;20209;-69
2022/11/24 10:15:24;;;;;;;17.30;9.60;;;9.20;99.90;;;;;;5069423;28;20203;-69
2022/11/24 10:18:02;;;;;;;21.40;10.33;;;9.30;99.90;;;;;;5070103;28;20206;-69
2022/11/24 10:21:03;;;;;;;20.40;10.23;;;9.30;99.90;;;;;;5062417;28;20199;-70
2022/11/24 10:23:43;;;;;;;23.30;9.33;;;9.30;99.90;;;;;;5071870;28;20257;-70
2022/11/24 10:26:33;;;;;;;17.37;8.50;;;9.40;99.90;;;;;;5054157;28;20660;-69
2022/11/24 10:29:05;;;;;;;27.87;9.57;;;9.40;99.90;;;;;;5043472;28;20294;-69
2022/11/24 10:31:39;;;;;;;17.17;7.90;;;9.40;99.90;;;;;;5067080;28;20192;-69
2022/11/24 10:34:17;;;;;;;15.07;8.47;;;9.50;99.90;;;;;;5075176;28;20211;-69
2022/11/24 10:37:12;;;;;;;15.97;7.17;;;9.50;99.90;;;;;;5066148;28;20323;-69
2022/11/24 10:39:57;;;;;;;17.07;8.03;;;9.50;99.90;;;;;;5072666;28;20319;-70
2022/11/24 10:42:30;;;;;;;20.27;7.40;;;9.60;99.90;;;;;;5069662;28;20230;-69
2022/11/24 10:45:01;;;;;;;19.67;7.13;;;9.60;99.90;;;;;;5070401;28;20301;-69
2022/11/24 10:47:29;;;;;;;22.33;7.20;;;9.70;99.90;;;;;;5069272;28;20286;-69
2022/11/24 10:50:01;;;;;;;19.40;6.50;;;9.70;99.90;;;;;;5051970;28;20236;-68
2022/11/24 10:52:33;;;;;;;18.07;5.77;;;9.70;99.90;;;;;;5062090;28;20303;-68
2022/11/24 10:55:03;;;;;;;17.43;6.97;;;9.80;99.90;;;;;;5068198;28;20291;-70
2022/11/24 10:57:32;;;;;;;15.73;6.10;;;9.70;99.90;;;;;;5063013;28;20231;-68
2022/11/24 10:59:59;;;;;;;13.97;5.83;;;9.90;99.90;;;;;;5068974;28;20315;-69
2022/11/24 11:02:38;;;;;;;16.93;6.23;;;10.00;99.90;;;;;;5065317;28;20208;-68
2022/11/24 11:05:40;;;;;;;13.40;5.60;;;10.00;99.90;;;;;;5069017;28;20288;-69
2022/11/24 11:08:13;;;;;;;14.73;5.87;;;10.00;99.90;;;;;;5069287;28;20199;-69
2022/11/24 11:10:42;;;;;;;13.50;5.57;;;10.00;99.90;;;;;;5065833;28;20220;-68
2022/11/24 11:13:31;;;;;;;16.00;6.53;;;10.00;99.90;;;;;;5066307;28;20216;-70
2022/11/24 11:15:58;;;;;;;12.67;5.27;;;10.00;99.90;;;;;;5046262;28;20226;-68
2022/11/24 11:18:31;;;;;;;11.50;5.30;;;10.00;99.90;;;;;;5066646;28;20229;-69
2022/11/24 11:21:01;;;;;;;14.77;5.10;;;10.10;99.90;;;;;;5065416;28;20215;-69
2022/11/24 11:23:29;;;;;;;14.30;4.63;;;10.10;99.90;;;;;;5062314;28;20200;-69
2022/11/24 11:26:16;;;;;;;15.27;4.43;;;10.20;99.90;;;;;;5067652;28;20675;-68
2022/11/24 11:29:00;;;;;;;16.20;5.13;;;10.20;99.90;;;;;;5066645;28;20582;-67
2022/11/24 11:32:03;;;;;;;17.60;5.20;;;10.20;99.90;;;;;;5067690;28;20236;-69
2022/11/24 11:34:52;;;;;;;16.13;4.40;;;10.20;99.90;;;;;;5061349;28;20204;-69
2022/11/24 11:37:29;;;;;;;11.47;4.17;;;10.20;99.90;;;;;;5072874;28;20210;-69
2022/11/24 11:39:57;;;;;;;14.43;4.60;;;10.30;99.90;;;;;;5075448;28;20570;-68
2022/11/24 11:42:40;;;;;;;13.37;4.50;;;10.40;99.90;;;;;;5074376;28;20211;-70
2022/11/24 11:45:35;;;;;;;17.17;4.30;;;10.40;99.90;;;;;;5070418;28;20231;-68
2022/11/24 11:48:02;;;;;;;14.53;3.87;;;10.50;99.90;;;;;;5070893;28;20200;-69
2022/11/24 11:50:48;;;;;;;10.77;3.47;;;10.50;99.90;;;;;;5067832;28;20676;-69
2022/11/24 11:54:06;;;;;;;13.73;4.53;;;10.50;99.90;;;;;;5066391;28;20208;-68
2022/11/24 11:56:43;;;;;;;12.77;3.77;;;10.50;99.90;;;;;;5065334;28;20269;-70
2022/11/24 11:59:19;;;;;;;17.27;3.37;;;10.60;99.90;;;;;;5067849;28;20224;-69
2022/11/24 12:02:21;;;;;;;13.90;3.23;;;10.60;99.90;;;;;;5065433;28;20729;-71
2022/11/24 12:04:55;;;;;;;19.50;4.17;;;10.60;99.90;;;;;;5031461;28;20200;-70
2022/11/24 12:07:49;;;;;;;16.00;4.07;;;10.70;99.90;;;;;;5055386;28;20204;-68
2022/11/24 12:10:40;;;;;;;12.53;3.47;;;10.70;99.90;;;;;;5054612;28;20201;-67
2022/11/24 12:13:31;;;;;;;16.60;4.17;;;10.70;99.90;;;;;;5072601;28;20286;-68
2022/11/24 12:16:21;;;;;;;12.23;3.77;;;10.70;99.90;;;;;;5072207;28;20204;-68
2022/11/24 12:19:06;;;;;;;16.57;4.10;;;10.80;99.90;;;;;;5059460;28;20307;-69
2022/11/24 12:21:42;;;;;;;16.67;3.90;;;10.80;99.90;;;;;;5069854;28;20660;-68
2022/11/24 12:24:30;;;;;;;15.23;4.00;;;10.80;99.90;;;;;;5072444;28;20245;-69
2022/11/24 12:27:20;;;;;;;12.40;4.33;;;10.80;99.90;;;;;;5067281;28;20254;-68
2022/11/24 12:30:10;;;;;;;18.20;3.83;;;10.80;99.90;;;;;;5065361;28;20201;-70
2022/11/24 12:33:06;;;;;;;20.50;4.30;;;10.90;99.90;;;;;;5062899;28;20254;-68
2022/11/24 12:35:40;;;;;;;14.67;4.00;;;10.90;99.90;;;;;;5068955;28;20323;-70
2022/11/24 12:38:36;;;;;;;14.63;4.10;;;10.90;99.90;;;;;;5070424;28;20296;-70
2022/11/24 12:41:37;;;;;;;17.77;3.87;;;10.90;99.90;;;;;;5068064;28;20203;-68
2022/11/24 12:44:26;;;;;;;15.83;4.00;;;11.00;99.90;;;;;;5067469;28;20289;-68
2022/11/24 12:47:07;;;;;;;18.57;4.13;;;10.90;99.90;;;;;;5066459;28;20291;-69
2022/11/24 12:50:17;;;;;;;15.67;3.60;;;10.90;99.90;;;;;;5068818;28;20200;-68
2022/11/24 12:52:59;;;;;;;16.83;3.90;;;11.00;99.90;;;;;;5018307;28;20253;-68
2022/11/24 12:55:28;;;;;;;20.27;3.47;;;10.90;99.90;;;;;;5066034;28;20660;-68
2022/11/24 12:58:19;;;;;;;17.67;3.37;;;11.00;99.90;;;;;;5066531;28;20248;-68
2022/11/24 13:01:13;;;;;;;17.47;4.10;;;10.90;99.90;;;;;;5048399;28;20324;-68
2022/11/24 13:04:01;;;;;;;12.00;4.17;;;10.90;99.90;;;;;;5060540;28;21007;-68
2022/11/24 13:06:38;;;;;;;23.70;4.60;;;11.00;99.90;;;;;;5063281;28;20287;-67
2022/11/24 13:09:12;;;;;;;14.80;3.40;;;11.00;99.90;;;;;;5046872;28;20205;-68
2022/11/24 13:11:49;;;;;;;13.10;3.20;;;11.00;99.90;;;;;;5064905;28;20233;-67
2022/11/24 13:14:30;;;;;;;15.87;4.60;;;11.10;99.90;;;;;;5060629;28;20311;-69
2022/11/24 13:16:59;;;;;;;14.30;3.10;;;11.10;99.90;;;;;;5028701;28;20205;-67